sensor_id;sensor_type;location;lat;lon;timestamp;P1;durP1;ratioP1;P2;durP2;ratioP2
82372;SDS011;72000;42.828;23.382;2024-03-02T00:00:20;28.92;;;11.25;;
82372;SDS011;72000;42.828;23.382;2024-03-02T00:05:16;30.23;;;10.95;;
82372;SDS011;72000;42.828;23.382;2024-03-02T00:07:43;29.35;;;11.07;;
82372;SDS011;72000;42.828;23.382;2024-03-02T00:10:11;29.05;;;11.60;;
82372;SDS011;72000;42.828;23.382;2024-03-02T00:12:40;29.77;;;10.73;;
82372;SDS011;72000;42.828;23.382;2024-03-02T00:15:15;28.85;;;11.13;;
82372;SDS011;72000;42.828;23.382;2024-03-02T00:17:59;28.80;;;10.82;;
82372;SDS011;72000;42.828;23.382;2024-03-02T00:20:25;27.75;;;10.73;;
82372;SDS011;72000;42.828;23.382;2024-03-02T00:22:55;27.38;;;10.40;;
82372;SDS011;72000;42.828;23.382;2024-03-02T00:25:34;25.58;;;10.63;;
82372;SDS011;72000;42.828;23.382;2024-03-02T00:28:05;26.92;;;10.50;;
82372;SDS011;72000;42.828;23.382;2024-03-02T00:30:39;27.90;;;10.95;;
82372;SDS011;72000;42.828;23.382;2024-03-02T00:33:09;31.38;;;11.95;;
82372;SDS011;72000;42.828;23.382;2024-03-02T00:38:04;31.60;;;11.05;;
82372;SDS011;72000;42.828;23.382;2024-03-02T00:40:31;28.48;;;11.07;;
82372;SDS011;72000;42.828;23.382;2024-03-02T00:42:57;27.45;;;10.00;;
82372;SDS011;72000;42.828;23.382;2024-03-02T00:45:22;27.98;;;11.20;;
82372;SDS011;72000;42.828;23.382;2024-03-02T00:47:50;27.98;;;10.50;;
82372;SDS011;72000;42.828;23.382;2024-03-02T00:50:16;25.55;;;10.38;;
82372;SDS011;72000;42.828;23.382;2024-03-02T00:52:42;29.00;;;10.95;;
82372;SDS011;72000;42.828;23.382;2024-03-02T00:55:08;28.05;;;11.32;;
82372;SDS011;72000;42.828;23.382;2024-03-02T00:57:34;29.42;;;11.32;;
82372;SDS011;72000;42.828;23.382;2024-03-02T01:00:00;27.88;;;11.73;;
82372;SDS011;72000;42.828;23.382;2024-03-02T01:02:25;31.77;;;11.60;;
82372;SDS011;72000;42.828;23.382;2024-03-02T01:04:51;27.88;;;10.95;;
82372;SDS011;72000;42.828;23.382;2024-03-02T01:07:17;30.92;;;10.75;;
82372;SDS011;72000;42.828;23.382;2024-03-02T01:09:43;30.50;;;11.10;;
82372;SDS011;72000;42.828;23.382;2024-03-02T01:12:08;26.95;;;10.50;;
82372;SDS011;72000;42.828;23.382;2024-03-02T01:14:34;28.13;;;10.65;;
82372;SDS011;72000;42.828;23.382;2024-03-02T01:17:00;25.45;;;9.63;;
82372;SDS011;72000;42.828;23.382;2024-03-02T01:19:29;27.55;;;10.25;;
82372;SDS011;72000;42.828;23.382;2024-03-02T01:21:55;30.15;;;11.07;;
82372;SDS011;72000;42.828;23.382;2024-03-02T01:24:20;24.63;;;10.20;;
82372;SDS011;72000;42.828;23.382;2024-03-02T01:26:46;27.98;;;10.13;;
82372;SDS011;72000;42.828;23.382;2024-03-02T01:29:11;31.90;;;10.60;;
82372;SDS011;72000;42.828;23.382;2024-03-02T01:31:37;28.20;;;11.40;;
82372;SDS011;72000;42.828;23.382;2024-03-02T01:34:04;29.90;;;10.85;;
82372;SDS011;72000;42.828;23.382;2024-03-02T01:36:30;29.67;;;10.98;;
82372;SDS011;72000;42.828;23.382;2024-03-02T01:38:56;29.45;;;12.00;;
82372;SDS011;72000;42.828;23.382;2024-03-02T01:41:21;29.58;;;11.48;;
82372;SDS011;72000;42.828;23.382;2024-03-02T01:43:47;28.25;;;11.15;;
82372;SDS011;72000;42.828;23.382;2024-03-02T01:46:12;31.55;;;11.77;;
82372;SDS011;72000;42.828;23.382;2024-03-02T01:48:38;31.50;;;11.05;;
82372;SDS011;72000;42.828;23.382;2024-03-02T01:51:03;28.05;;;10.50;;
82372;SDS011;72000;42.828;23.382;2024-03-02T01:53:31;30.20;;;11.43;;
82372;SDS011;72000;42.828;23.382;2024-03-02T01:55:56;27.55;;;10.70;;
82372;SDS011;72000;42.828;23.382;2024-03-02T01:58:22;29.38;;;11.00;;
82372;SDS011;72000;42.828;23.382;2024-03-02T02:00:48;30.63;;;12.30;;
82372;SDS011;72000;42.828;23.382;2024-03-02T02:03:14;31.63;;;13.02;;
82372;SDS011;72000;42.828;23.382;2024-03-02T02:05:41;31.75;;;12.25;;
82372;SDS011;72000;42.828;23.382;2024-03-02T02:08:07;29.00;;;11.00;;
82372;SDS011;72000;42.828;23.382;2024-03-02T02:10:33;32.70;;;12.00;;
82372;SDS011;72000;42.828;23.382;2024-03-02T02:12:58;31.08;;;11.85;;
82372;SDS011;72000;42.828;23.382;2024-03-02T02:17:54;28.42;;;10.60;;
82372;SDS011;72000;42.828;23.382;2024-03-02T02:20:20;29.20;;;11.02;;
82372;SDS011;72000;42.828;23.382;2024-03-02T02:25:24;28.98;;;10.68;;
82372;SDS011;72000;42.828;23.382;2024-03-02T02:27:50;27.58;;;11.10;;
82372;SDS011;72000;42.828;23.382;2024-03-02T02:30:20;29.25;;;11.05;;
82372;SDS011;72000;42.828;23.382;2024-03-02T02:32:49;29.33;;;11.50;;
82372;SDS011;72000;42.828;23.382;2024-03-02T02:35:15;31.40;;;11.57;;
82372;SDS011;72000;42.828;23.382;2024-03-02T02:37:41;27.60;;;10.80;;
82372;SDS011;72000;42.828;23.382;2024-03-02T02:40:06;24.95;;;10.10;;
82372;SDS011;72000;42.828;23.382;2024-03-02T02:42:32;28.75;;;11.00;;
82372;SDS011;72000;42.828;23.382;2024-03-02T02:44:58;30.35;;;10.82;;
82372;SDS011;72000;42.828;23.382;2024-03-02T02:47:23;29.25;;;10.55;;
82372;SDS011;72000;42.828;23.382;2024-03-02T02:49:49;29.98;;;11.05;;
82372;SDS011;72000;42.828;23.382;2024-03-02T02:52:14;28.35;;;10.32;;
82372;SDS011;72000;42.828;23.382;2024-03-02T02:54:40;23.90;;;10.20;;
82372;SDS011;72000;42.828;23.382;2024-03-02T02:57:06;26.63;;;10.43;;
82372;SDS011;72000;42.828;23.382;2024-03-02T02:59:31;29.00;;;10.75;;
82372;SDS011;72000;42.828;23.382;2024-03-02T03:01:57;28.73;;;10.15;;
82372;SDS011;72000;42.828;23.382;2024-03-02T03:04:22;28.77;;;10.30;;
82372;SDS011;72000;42.828;23.382;2024-03-02T03:06:48;26.00;;;9.85;;
82372;SDS011;72000;42.828;23.382;2024-03-02T03:09:13;25.42;;;10.35;;
82372;SDS011;72000;42.828;23.382;2024-03-02T03:11:39;26.75;;;9.98;;
82372;SDS011;72000;42.828;23.382;2024-03-02T03:14:05;25.67;;;10.00;;
82372;SDS011;72000;42.828;23.382;2024-03-02T03:16:30;25.65;;;9.45;;
82372;SDS011;72000;42.828;23.382;2024-03-02T03:18:56;25.33;;;10.00;;
82372;SDS011;72000;42.828;23.382;2024-03-02T03:21:21;24.60;;;9.68;;
82372;SDS011;72000;42.828;23.382;2024-03-02T03:23:47;21.52;;;8.70;;
82372;SDS011;72000;42.828;23.382;2024-03-02T03:26:12;30.15;;;10.23;;
82372;SDS011;72000;42.828;23.382;2024-03-02T03:28:38;29.23;;;10.52;;
82372;SDS011;72000;42.828;23.382;2024-03-02T03:31:04;26.10;;;10.43;;
82372;SDS011;72000;42.828;23.382;2024-03-02T03:33:29;23.30;;;8.75;;
82372;SDS011;72000;42.828;23.382;2024-03-02T03:35:55;25.48;;;9.90;;
82372;SDS011;72000;42.828;23.382;2024-03-02T03:38:20;27.60;;;9.68;;
82372;SDS011;72000;42.828;23.382;2024-03-02T03:40:46;28.73;;;9.88;;
82372;SDS011;72000;42.828;23.382;2024-03-02T03:43:12;28.20;;;10.18;;
82372;SDS011;72000;42.828;23.382;2024-03-02T03:45:38;27.13;;;10.38;;
82372;SDS011;72000;42.828;23.382;2024-03-02T03:48:04;25.38;;;10.30;;
82372;SDS011;72000;42.828;23.382;2024-03-02T03:50:29;26.42;;;9.68;;
82372;SDS011;72000;42.828;23.382;2024-03-02T03:52:55;23.55;;;9.25;;
82372;SDS011;72000;42.828;23.382;2024-03-02T03:55:20;28.13;;;10.27;;
82372;SDS011;72000;42.828;23.382;2024-03-02T03:57:46;25.90;;;10.23;;
82372;SDS011;72000;42.828;23.382;2024-03-02T04:00:12;27.73;;;11.00;;
82372;SDS011;72000;42.828;23.382;2024-03-02T04:02:38;26.83;;;11.20;;
82372;SDS011;72000;42.828;23.382;2024-03-02T04:05:03;28.33;;;10.50;;
82372;SDS011;72000;42.828;23.382;2024-03-02T04:07:34;23.52;;;9.88;;
82372;SDS011;72000;42.828;23.382;2024-03-02T04:10:05;28.50;;;10.55;;
82372;SDS011;72000;42.828;23.382;2024-03-02T04:12:38;24.85;;;9.55;;
82372;SDS011;72000;42.828;23.382;2024-03-02T04:15:07;28.25;;;10.57;;
82372;SDS011;72000;42.828;23.382;2024-03-02T04:17:33;24.75;;;10.32;;
82372;SDS011;72000;42.828;23.382;2024-03-02T04:19:59;25.27;;;9.88;;
82372;SDS011;72000;42.828;23.382;2024-03-02T04:22:25;30.67;;;10.93;;
82372;SDS011;72000;42.828;23.382;2024-03-02T04:24:52;27.60;;;10.68;;
82372;SDS011;72000;42.828;23.382;2024-03-02T04:27:17;27.92;;;10.90;;
82372;SDS011;72000;42.828;23.382;2024-03-02T04:29:43;26.58;;;10.07;;
82372;SDS011;72000;42.828;23.382;2024-03-02T04:32:08;28.20;;;10.95;;
82372;SDS011;72000;42.828;23.382;2024-03-02T04:34:34;27.55;;;10.43;;
82372;SDS011;72000;42.828;23.382;2024-03-02T04:36:59;25.45;;;10.48;;
82372;SDS011;72000;42.828;23.382;2024-03-02T04:39:25;28.77;;;10.80;;
82372;SDS011;72000;42.828;23.382;2024-03-02T04:41:51;26.75;;;10.55;;
82372;SDS011;72000;42.828;23.382;2024-03-02T04:44:17;25.73;;;9.82;;
82372;SDS011;72000;42.828;23.382;2024-03-02T04:46:42;26.58;;;9.77;;
82372;SDS011;72000;42.828;23.382;2024-03-02T04:49:08;29.13;;;10.65;;
82372;SDS011;72000;42.828;23.382;2024-03-02T04:51:33;28.95;;;11.55;;
82372;SDS011;72000;42.828;23.382;2024-03-02T04:53:59;25.45;;;10.60;;
82372;SDS011;72000;42.828;23.382;2024-03-02T04:56:24;30.67;;;11.35;;
82372;SDS011;72000;42.828;23.382;2024-03-02T04:58:56;26.05;;;9.48;;
82372;SDS011;72000;42.828;23.382;2024-03-02T05:01:22;32.85;;;11.68;;
82372;SDS011;72000;42.828;23.382;2024-03-02T05:03:47;28.42;;;9.80;;
82372;SDS011;72000;42.828;23.382;2024-03-02T05:06:13;27.20;;;10.25;;
82372;SDS011;72000;42.828;23.382;2024-03-02T05:08:38;27.55;;;11.50;;
82372;SDS011;72000;42.828;23.382;2024-03-02T05:11:04;26.55;;;11.20;;
82372;SDS011;72000;42.828;23.382;2024-03-02T05:13:48;32.85;;;11.25;;
82372;SDS011;72000;42.828;23.382;2024-03-02T05:16:13;27.33;;;9.95;;
82372;SDS011;72000;42.828;23.382;2024-03-02T05:18:39;32.60;;;11.70;;
82372;SDS011;72000;42.828;23.382;2024-03-02T05:21:04;27.13;;;10.70;;
82372;SDS011;72000;42.828;23.382;2024-03-02T05:23:30;27.98;;;10.90;;
82372;SDS011;72000;42.828;23.382;2024-03-02T05:25:56;26.60;;;10.25;;
82372;SDS011;72000;42.828;23.382;2024-03-02T05:28:21;27.58;;;10.63;;
82372;SDS011;72000;42.828;23.382;2024-03-02T05:30:47;26.90;;;10.95;;
82372;SDS011;72000;42.828;23.382;2024-03-02T05:33:12;29.95;;;11.00;;
82372;SDS011;72000;42.828;23.382;2024-03-02T05:35:38;29.83;;;10.57;;
82372;SDS011;72000;42.828;23.382;2024-03-02T05:38:03;32.55;;;11.32;;
82372;SDS011;72000;42.828;23.382;2024-03-02T05:40:29;30.27;;;11.38;;
82372;SDS011;72000;42.828;23.382;2024-03-02T05:42:54;26.58;;;10.63;;
82372;SDS011;72000;42.828;23.382;2024-03-02T05:45:20;29.95;;;10.27;;
82372;SDS011;72000;42.828;23.382;2024-03-02T05:47:45;30.95;;;11.38;;
82372;SDS011;72000;42.828;23.382;2024-03-02T05:50:11;31.65;;;11.88;;
82372;SDS011;72000;42.828;23.382;2024-03-02T05:52:37;29.83;;;11.65;;
82372;SDS011;72000;42.828;23.382;2024-03-02T05:55:03;31.67;;;11.90;;
82372;SDS011;72000;42.828;23.382;2024-03-02T05:57:28;32.90;;;11.65;;
82372;SDS011;72000;42.828;23.382;2024-03-02T06:00:10;31.27;;;11.88;;
82372;SDS011;72000;42.828;23.382;2024-03-02T06:02:39;26.52;;;10.73;;
82372;SDS011;72000;42.828;23.382;2024-03-02T06:05:06;31.15;;;11.77;;
82372;SDS011;72000;42.828;23.382;2024-03-02T06:07:32;30.50;;;11.57;;
82372;SDS011;72000;42.828;23.382;2024-03-02T06:09:58;30.60;;;11.68;;
82372;SDS011;72000;42.828;23.382;2024-03-02T06:12:23;31.63;;;11.30;;
82372;SDS011;72000;42.828;23.382;2024-03-02T06:14:49;30.52;;;11.20;;
82372;SDS011;72000;42.828;23.382;2024-03-02T06:17:14;31.95;;;11.77;;
82372;SDS011;72000;42.828;23.382;2024-03-02T06:19:40;33.33;;;11.77;;
82372;SDS011;72000;42.828;23.382;2024-03-02T06:22:06;31.10;;;11.18;;
82372;SDS011;72000;42.828;23.382;2024-03-02T06:24:31;37.30;;;12.13;;
82372;SDS011;72000;42.828;23.382;2024-03-02T06:26:57;33.33;;;12.07;;
82372;SDS011;72000;42.828;23.382;2024-03-02T06:29:22;31.50;;;11.45;;
82372;SDS011;72000;42.828;23.382;2024-03-02T06:31:48;30.08;;;11.27;;
82372;SDS011;72000;42.828;23.382;2024-03-02T06:34:13;33.22;;;11.48;;
82372;SDS011;72000;42.828;23.382;2024-03-02T06:36:39;30.20;;;11.93;;
82372;SDS011;72000;42.828;23.382;2024-03-02T06:39:05;29.80;;;11.10;;
82372;SDS011;72000;42.828;23.382;2024-03-02T06:41:31;31.67;;;11.13;;
82372;SDS011;72000;42.828;23.382;2024-03-02T06:43:56;36.17;;;11.27;;
82372;SDS011;72000;42.828;23.382;2024-03-02T06:46:27;32.72;;;11.63;;
82372;SDS011;72000;42.828;23.382;2024-03-02T06:48:53;30.88;;;11.23;;
82372;SDS011;72000;42.828;23.382;2024-03-02T06:51:18;35.13;;;11.77;;
82372;SDS011;72000;42.828;23.382;2024-03-02T06:53:44;30.90;;;10.75;;
82372;SDS011;72000;42.828;23.382;2024-03-02T06:56:09;40.33;;;11.85;;
82372;SDS011;72000;42.828;23.382;2024-03-02T06:58:35;29.17;;;11.52;;
82372;SDS011;72000;42.828;23.382;2024-03-02T07:01:01;26.27;;;10.80;;
82372;SDS011;72000;42.828;23.382;2024-03-02T07:03:26;28.67;;;11.05;;
82372;SDS011;72000;42.828;23.382;2024-03-02T07:05:52;24.75;;;9.93;;
82372;SDS011;72000;42.828;23.382;2024-03-02T07:08:17;28.80;;;10.60;;
82372;SDS011;72000;42.828;23.382;2024-03-02T07:10:43;30.77;;;10.95;;
82372;SDS011;72000;42.828;23.382;2024-03-02T07:13:08;29.70;;;11.15;;
82372;SDS011;72000;42.828;23.382;2024-03-02T07:15:33;31.70;;;11.30;;
82372;SDS011;72000;42.828;23.382;2024-03-02T07:18:15;27.27;;;10.75;;
82372;SDS011;72000;42.828;23.382;2024-03-02T07:20:41;27.13;;;11.20;;
82372;SDS011;72000;42.828;23.382;2024-03-02T07:23:07;26.35;;;9.38;;
82372;SDS011;72000;42.828;23.382;2024-03-02T07:25:32;29.60;;;11.98;;
82372;SDS011;72000;42.828;23.382;2024-03-02T07:27:58;22.70;;;9.98;;
82372;SDS011;72000;42.828;23.382;2024-03-02T07:30:23;23.67;;;9.15;;
82372;SDS011;72000;42.828;23.382;2024-03-02T07:32:52;27.10;;;10.80;;
82372;SDS011;72000;42.828;23.382;2024-03-02T07:35:18;31.25;;;10.55;;
82372;SDS011;72000;42.828;23.382;2024-03-02T07:37:43;26.92;;;10.40;;
82372;SDS011;72000;42.828;23.382;2024-03-02T07:40:09;26.92;;;10.75;;
82372;SDS011;72000;42.828;23.382;2024-03-02T07:42:39;24.38;;;9.60;;
82372;SDS011;72000;42.828;23.382;2024-03-02T07:45:05;25.80;;;9.68;;
82372;SDS011;72000;42.828;23.382;2024-03-02T07:47:32;25.45;;;9.95;;
82372;SDS011;72000;42.828;23.382;2024-03-02T07:49:59;22.40;;;9.23;;
82372;SDS011;72000;42.828;23.382;2024-03-02T07:52:24;21.60;;;8.82;;
82372;SDS011;72000;42.828;23.382;2024-03-02T07:54:50;23.38;;;8.80;;
82372;SDS011;72000;42.828;23.382;2024-03-02T07:57:16;20.00;;;8.38;;
82372;SDS011;72000;42.828;23.382;2024-03-02T07:59:41;21.92;;;8.85;;
82372;SDS011;72000;42.828;23.382;2024-03-02T08:02:08;19.95;;;8.55;;
82372;SDS011;72000;42.828;23.382;2024-03-02T08:04:33;23.13;;;8.10;;
82372;SDS011;72000;42.828;23.382;2024-03-02T08:06:59;18.27;;;7.80;;
82372;SDS011;72000;42.828;23.382;2024-03-02T08:09:25;19.73;;;7.63;;
82372;SDS011;72000;42.828;23.382;2024-03-02T08:11:51;19.77;;;7.85;;
82372;SDS011;72000;42.828;23.382;2024-03-02T08:14:16;19.52;;;7.78;;
82372;SDS011;72000;42.828;23.382;2024-03-02T08:16:42;19.90;;;8.13;;
82372;SDS011;72000;42.828;23.382;2024-03-02T08:19:07;18.88;;;7.75;;
82372;SDS011;72000;42.828;23.382;2024-03-02T08:21:34;19.08;;;7.47;;
82372;SDS011;72000;42.828;23.382;2024-03-02T08:24:01;19.23;;;7.57;;
82372;SDS011;72000;42.828;23.382;2024-03-02T08:26:27;21.25;;;7.90;;
82372;SDS011;72000;42.828;23.382;2024-03-02T08:28:54;18.60;;;7.50;;
82372;SDS011;72000;42.828;23.382;2024-03-02T08:31:20;20.65;;;7.80;;
82372;SDS011;72000;42.828;23.382;2024-03-02T08:33:46;21.85;;;7.80;;
82372;SDS011;72000;42.828;23.382;2024-03-02T08:36:11;21.92;;;8.32;;
82372;SDS011;72000;42.828;23.382;2024-03-02T08:38:37;21.27;;;8.18;;
82372;SDS011;72000;42.828;23.382;2024-03-02T08:41:03;20.00;;;8.18;;
82372;SDS011;72000;42.828;23.382;2024-03-02T08:43:29;22.02;;;8.13;;
82372;SDS011;72000;42.828;23.382;2024-03-02T08:45:54;20.42;;;7.70;;
82372;SDS011;72000;42.828;23.382;2024-03-02T08:48:20;21.55;;;7.50;;
82372;SDS011;72000;42.828;23.382;2024-03-02T08:50:46;19.42;;;7.80;;
82372;SDS011;72000;42.828;23.382;2024-03-02T08:53:11;20.33;;;8.07;;
82372;SDS011;72000;42.828;23.382;2024-03-02T08:55:37;19.13;;;8.00;;
82372;SDS011;72000;42.828;23.382;2024-03-02T08:58:02;19.88;;;8.13;;
82372;SDS011;72000;42.828;23.382;2024-03-02T09:00:28;20.60;;;7.70;;
82372;SDS011;72000;42.828;23.382;2024-03-02T09:02:55;24.70;;;8.80;;
82372;SDS011;72000;42.828;23.382;2024-03-02T09:05:21;21.55;;;8.57;;
82372;SDS011;72000;42.828;23.382;2024-03-02T09:07:46;25.02;;;7.72;;
82372;SDS011;72000;42.828;23.382;2024-03-02T09:10:12;23.27;;;8.90;;
82372;SDS011;72000;42.828;23.382;2024-03-02T09:12:37;20.42;;;7.78;;
82372;SDS011;72000;42.828;23.382;2024-03-02T09:15:04;23.65;;;8.60;;
82372;SDS011;72000;42.828;23.382;2024-03-02T09:17:31;23.07;;;8.40;;
82372;SDS011;72000;42.828;23.382;2024-03-02T09:19:56;21.50;;;9.25;;
82372;SDS011;72000;42.828;23.382;2024-03-02T09:22:22;22.38;;;8.23;;
82372;SDS011;72000;42.828;23.382;2024-03-02T09:24:48;23.52;;;8.02;;
82372;SDS011;72000;42.828;23.382;2024-03-02T09:27:14;25.88;;;8.95;;
82372;SDS011;72000;42.828;23.382;2024-03-02T09:29:39;20.45;;;8.15;;
82372;SDS011;72000;42.828;23.382;2024-03-02T09:32:05;21.08;;;8.60;;
82372;SDS011;72000;42.828;23.382;2024-03-02T09:34:31;21.95;;;8.00;;
82372;SDS011;72000;42.828;23.382;2024-03-02T09:36:57;19.95;;;7.55;;
82372;SDS011;72000;42.828;23.382;2024-03-02T09:39:23;19.55;;;8.05;;
82372;SDS011;72000;42.828;23.382;2024-03-02T09:41:50;17.60;;;7.55;;
82372;SDS011;72000;42.828;23.382;2024-03-02T09:44:16;21.08;;;8.30;;
82372;SDS011;72000;42.828;23.382;2024-03-02T09:46:43;19.65;;;7.75;;
82372;SDS011;72000;42.828;23.382;2024-03-02T09:49:09;20.25;;;8.07;;
82372;SDS011;72000;42.828;23.382;2024-03-02T09:51:37;19.77;;;8.13;;
82372;SDS011;72000;42.828;23.382;2024-03-02T09:54:02;18.20;;;7.72;;
82372;SDS011;72000;42.828;23.382;2024-03-02T09:56:28;23.40;;;8.48;;
82372;SDS011;72000;42.828;23.382;2024-03-02T09:58:54;19.23;;;7.38;;
82372;SDS011;72000;42.828;23.382;2024-03-02T10:01:19;22.25;;;8.50;;
82372;SDS011;72000;42.828;23.382;2024-03-02T10:03:45;17.73;;;7.05;;
82372;SDS011;72000;42.828;23.382;2024-03-02T10:06:20;20.33;;;8.07;;
82372;SDS011;72000;42.828;23.382;2024-03-02T10:08:49;22.75;;;7.70;;
82372;SDS011;72000;42.828;23.382;2024-03-02T10:11:34;18.02;;;7.00;;
82372;SDS011;72000;42.828;23.382;2024-03-02T10:14:08;20.85;;;8.05;;
82372;SDS011;72000;42.828;23.382;2024-03-02T10:16:39;21.70;;;7.68;;
82372;SDS011;72000;42.828;23.382;2024-03-02T10:19:15;18.98;;;7.40;;
82372;SDS011;72000;42.828;23.382;2024-03-02T10:21:42;18.98;;;7.57;;
82372;SDS011;72000;42.828;23.382;2024-03-02T10:24:08;15.63;;;6.53;;
82372;SDS011;72000;42.828;23.382;2024-03-02T10:26:33;16.70;;;6.75;;
82372;SDS011;72000;42.828;23.382;2024-03-02T10:28:59;18.23;;;6.90;;
82372;SDS011;72000;42.828;23.382;2024-03-02T10:31:25;17.25;;;7.20;;
82372;SDS011;72000;42.828;23.382;2024-03-02T10:33:55;17.25;;;7.80;;
82372;SDS011;72000;42.828;23.382;2024-03-02T10:36:23;19.23;;;7.28;;
82372;SDS011;72000;42.828;23.382;2024-03-02T10:38:49;13.77;;;6.70;;
82372;SDS011;72000;42.828;23.382;2024-03-02T10:41:18;18.15;;;7.30;;
82372;SDS011;72000;42.828;23.382;2024-03-02T10:43:44;16.15;;;6.82;;
82372;SDS011;72000;42.828;23.382;2024-03-02T10:46:10;16.27;;;6.88;;
82372;SDS011;72000;42.828;23.382;2024-03-02T10:48:37;16.17;;;7.53;;
82372;SDS011;72000;42.828;23.382;2024-03-02T10:51:04;16.13;;;6.32;;
82372;SDS011;72000;42.828;23.382;2024-03-02T10:53:30;18.05;;;6.85;;
82372;SDS011;72000;42.828;23.382;2024-03-02T10:55:57;18.20;;;7.72;;
82372;SDS011;72000;42.828;23.382;2024-03-02T10:58:27;17.55;;;7.60;;
82372;SDS011;72000;42.828;23.382;2024-03-02T11:00:57;17.85;;;7.70;;
82372;SDS011;72000;42.828;23.382;2024-03-02T11:03:26;14.95;;;6.30;;
82372;SDS011;72000;42.828;23.382;2024-03-02T11:05:52;15.70;;;6.50;;
82372;SDS011;72000;42.828;23.382;2024-03-02T11:08:18;16.27;;;6.53;;
82372;SDS011;72000;42.828;23.382;2024-03-02T11:10:51;17.92;;;7.25;;
82372;SDS011;72000;42.828;23.382;2024-03-02T11:15:47;16.70;;;6.65;;
82372;SDS011;72000;42.828;23.382;2024-03-02T11:20:39;14.43;;;6.20;;
82372;SDS011;72000;42.828;23.382;2024-03-02T11:23:06;17.55;;;7.28;;
82372;SDS011;72000;42.828;23.382;2024-03-02T11:25:33;21.10;;;7.88;;
82372;SDS011;72000;42.828;23.382;2024-03-02T11:27:59;19.67;;;8.32;;
82372;SDS011;72000;42.828;23.382;2024-03-02T11:32:58;16.27;;;7.43;;
82372;SDS011;72000;42.828;23.382;2024-03-02T11:35:27;16.58;;;7.40;;
82372;SDS011;72000;42.828;23.382;2024-03-02T11:37:56;18.55;;;8.77;;
82372;SDS011;72000;42.828;23.382;2024-03-02T11:40:27;17.23;;;8.23;;
82372;SDS011;72000;42.828;23.382;2024-03-02T11:42:53;18.40;;;7.15;;
82372;SDS011;72000;42.828;23.382;2024-03-02T11:45:28;15.63;;;6.65;;
82372;SDS011;72000;42.828;23.382;2024-03-02T11:47:58;18.20;;;6.55;;
82372;SDS011;72000;42.828;23.382;2024-03-02T11:50:30;14.27;;;6.55;;
82372;SDS011;72000;42.828;23.382;2024-03-02T11:52:59;13.85;;;6.43;;
82372;SDS011;72000;42.828;23.382;2024-03-02T11:55:27;15.40;;;6.38;;
82372;SDS011;72000;42.828;23.382;2024-03-02T11:57:54;13.52;;;6.03;;
82372;SDS011;72000;42.828;23.382;2024-03-02T12:00:19;14.70;;;5.95;;
82372;SDS011;72000;42.828;23.382;2024-03-02T12:02:45;14.57;;;6.32;;
82372;SDS011;72000;42.828;23.382;2024-03-02T12:05:15;12.60;;;5.80;;
82372;SDS011;72000;42.828;23.382;2024-03-02T12:07:44;14.23;;;6.45;;
82372;SDS011;72000;42.828;23.382;2024-03-02T12:10:09;12.00;;;6.10;;
82372;SDS011;72000;42.828;23.382;2024-03-02T12:12:35;11.27;;;5.47;;
82372;SDS011;72000;42.828;23.382;2024-03-02T12:15:01;16.15;;;6.88;;
82372;SDS011;72000;42.828;23.382;2024-03-02T12:17:27;12.35;;;5.47;;
82372;SDS011;72000;42.828;23.382;2024-03-02T12:19:52;11.32;;;5.18;;
82372;SDS011;72000;42.828;23.382;2024-03-02T12:22:18;11.32;;;5.00;;
82372;SDS011;72000;42.828;23.382;2024-03-02T12:24:44;12.52;;;5.20;;
82372;SDS011;72000;42.828;23.382;2024-03-02T12:27:13;10.73;;;4.80;;
82372;SDS011;72000;42.828;23.382;2024-03-02T12:29:40;11.32;;;5.13;;
82372;SDS011;72000;42.828;23.382;2024-03-02T12:32:06;10.68;;;5.07;;
82372;SDS011;72000;42.828;23.382;2024-03-02T12:34:32;10.52;;;4.32;;
82372;SDS011;72000;42.828;23.382;2024-03-02T12:36:57;11.45;;;5.30;;
82372;SDS011;72000;42.828;23.382;2024-03-02T12:39:23;12.23;;;5.70;;
82372;SDS011;72000;42.828;23.382;2024-03-02T12:41:49;12.70;;;5.40;;
82372;SDS011;72000;42.828;23.382;2024-03-02T12:44:19;12.70;;;5.80;;
82372;SDS011;72000;42.828;23.382;2024-03-02T12:46:45;13.13;;;5.15;;
82372;SDS011;72000;42.828;23.382;2024-03-02T12:51:38;9.77;;;4.60;;
82372;SDS011;72000;42.828;23.382;2024-03-02T12:54:09;10.70;;;4.65;;
82372;SDS011;72000;42.828;23.382;2024-03-02T12:56:38;11.20;;;5.00;;
82372;SDS011;72000;42.828;23.382;2024-03-02T12:59:04;10.55;;;4.65;;
82372;SDS011;72000;42.828;23.382;2024-03-02T13:03:57;9.65;;;4.30;;
82372;SDS011;72000;42.828;23.382;2024-03-02T13:06:23;9.75;;;4.25;;
82372;SDS011;72000;42.828;23.382;2024-03-02T13:08:49;9.70;;;4.40;;
82372;SDS011;72000;42.828;23.382;2024-03-02T13:11:16;11.10;;;4.97;;
82372;SDS011;72000;42.828;23.382;2024-03-02T13:13:41;9.57;;;4.25;;
82372;SDS011;72000;42.828;23.382;2024-03-02T13:16:10;8.48;;;4.30;;
82372;SDS011;72000;42.828;23.382;2024-03-02T13:18:38;7.97;;;3.88;;
82372;SDS011;72000;42.828;23.382;2024-03-02T13:21:05;9.05;;;4.47;;
82372;SDS011;72000;42.828;23.382;2024-03-02T13:23:31;11.93;;;5.38;;
82372;SDS011;72000;42.828;23.382;2024-03-02T13:25:57;9.98;;;4.35;;
82372;SDS011;72000;42.828;23.382;2024-03-02T13:28:26;9.88;;;4.65;;
82372;SDS011;72000;42.828;23.382;2024-03-02T13:30:52;9.30;;;4.07;;
82372;SDS011;72000;42.828;23.382;2024-03-02T13:33:17;9.65;;;4.38;;
82372;SDS011;72000;42.828;23.382;2024-03-02T13:35:51;8.52;;;4.13;;
82372;SDS011;72000;42.828;23.382;2024-03-02T13:38:17;9.35;;;4.57;;
82372;SDS011;72000;42.828;23.382;2024-03-02T13:40:44;9.57;;;4.38;;
82372;SDS011;72000;42.828;23.382;2024-03-02T13:43:09;7.63;;;3.67;;
82372;SDS011;72000;42.828;23.382;2024-03-02T13:45:35;10.57;;;4.28;;
82372;SDS011;72000;42.828;23.382;2024-03-02T13:48:01;9.10;;;4.53;;
82372;SDS011;72000;42.828;23.382;2024-03-02T13:50:28;8.80;;;4.07;;
82372;SDS011;72000;42.828;23.382;2024-03-02T13:52:55;8.60;;;3.88;;
82372;SDS011;72000;42.828;23.382;2024-03-02T13:55:22;9.38;;;4.20;;
82372;SDS011;72000;42.828;23.382;2024-03-02T13:57:47;8.57;;;4.25;;
82372;SDS011;72000;42.828;23.382;2024-03-02T14:00:15;8.90;;;4.28;;
82372;SDS011;72000;42.828;23.382;2024-03-02T14:02:42;9.82;;;4.30;;
82372;SDS011;72000;42.828;23.382;2024-03-02T14:05:08;8.98;;;4.07;;
82372;SDS011;72000;42.828;23.382;2024-03-02T14:07:37;8.70;;;4.03;;
82372;SDS011;72000;42.828;23.382;2024-03-02T14:10:03;8.98;;;4.20;;
82372;SDS011;72000;42.828;23.382;2024-03-02T14:12:29;8.77;;;4.07;;
82372;SDS011;72000;42.828;23.382;2024-03-02T14:14:55;9.80;;;4.15;;
82372;SDS011;72000;42.828;23.382;2024-03-02T14:17:24;9.95;;;4.13;;
82372;SDS011;72000;42.828;23.382;2024-03-02T14:19:49;8.00;;;4.07;;
82372;SDS011;72000;42.828;23.382;2024-03-02T14:22:16;9.18;;;3.85;;
82372;SDS011;72000;42.828;23.382;2024-03-02T14:24:43;8.15;;;3.92;;
82372;SDS011;72000;42.828;23.382;2024-03-02T14:27:09;8.45;;;3.83;;
82372;SDS011;72000;42.828;23.382;2024-03-02T14:29:34;8.65;;;4.03;;
82372;SDS011;72000;42.828;23.382;2024-03-02T14:32:03;8.40;;;4.10;;
82372;SDS011;72000;42.828;23.382;2024-03-02T14:34:29;9.73;;;4.18;;